Time;durP1;ratioP1;P1;durP2;ratioP2;P2;SDS_P1;SDS_P2;PMS_P1;PMS_P2;Temp;Humidity;BMP_temperature;BMP_pressure;BME280_temperature;BME280_humidity;BME280_pressure;Samples;Min_cycle;Max_cycle;Signal;HPM_P1;HPM_P2
2024/03/31 00:01:50;;;;;;;26.80;3.00;;;;;;;14.48;59.29;98826.67;108592;1276;24233;-80
2024/03/31 00:04:41;;;;;;;23.20;2.10;;;;;;;14.48;59.11;98827.30;108567;1276;22581;-78
2024/03/31 00:07:33;;;;;;;27.10;2.40;;;;;;;14.46;59.29;98821.48;107849;1273;22558;-78
2024/03/31 00:10:23;;;;;;;27.60;3.10;;;;;;;14.44;59.41;98815.58;107991;1269;22641;-79
2024/03/31 00:13:14;;;;;;;24.90;2.40;;;;;;;14.40;59.23;98811.06;107937;1276;22662;-81
2024/03/31 00:16:06;;;;;;;21.80;2.10;;;;;;;14.37;59.36;98805.46;109258;1276;22562;-83
2024/03/31 00:18:57;;;;;;;26.50;2.20;;;;;;;14.35;59.29;98803.15;109320;1276;22654;-82
2024/03/31 00:21:48;;;;;;;29.10;2.30;;;;;;;14.32;59.43;98801.61;109344;1265;22570;-79
2024/03/31 00:24:41;;;;;;;27.20;3.00;;;;;;;14.30;59.38;98797.42;109118;1276;23492;-79
2024/03/31 00:27:32;;;;;;;29.00;2.60;;;;;;;14.28;59.43;98793.67;109100;1271;22621;-80
2024/03/31 00:30:22;;;;;;;20.10;1.90;;;;;;;14.25;59.55;98788.20;108910;1276;23226;-80
2024/03/31 00:33:13;;;;;;;21.00;1.90;;;;;;;14.23;59.51;98794.00;108715;1273;22565;-81
2024/03/31 00:36:05;;;;;;;27.20;2.30;;;;;;;14.22;59.61;98791.34;109025;1276;22567;-81
2024/03/31 00:38:55;;;;;;;24.20;2.40;;;;;;;14.20;59.54;98787.74;108962;1276;23183;-82
2024/03/31 00:41:46;;;;;;;27.80;2.50;;;;;;;14.17;59.74;98791.78;110521;1273;23178;-81
2024/03/31 00:44:35;;;;;;;;;;;;;;;14.14;59.70;98795.25;110587;1274;23264;-81
2024/03/31 00:47:25;;;;;;;25.30;2.20;;;;;;;14.05;59.93;98790.33;110566;1269;22332;-80
2024/03/31 00:50:16;;;;;;;27.20;2.00;;;;;;;13.95;59.80;98790.13;110421;1273;22304;-80
2024/03/31 00:53:07;;;;;;;24.30;2.90;;;;;;;13.87;59.97;98788.77;110546;1273;22583;-84
2024/03/31 00:55:57;;;;;;;28.60;3.20;;;;;;;13.82;60.07;98786.19;110493;1275;22328;-81
2024/03/31 00:58:46;;;;;;;;;;;;;;;13.74;60.18;98789.41;110416;1274;23578;-82
2024/03/31 01:01:36;;;;;;;25.00;3.50;;;;;;;13.64;60.34;98787.00;110534;1273;22802;-82
2024/03/31 01:04:26;;;;;;;25.40;2.30;;;;;;;13.55;60.39;98787.24;110515;1269;22253;-81
2024/03/31 01:07:16;;;;;;;21.20;2.00;;;;;;;13.48;60.53;98788.14;110537;1269;22166;-83
2024/03/31 01:10:10;;;;;;;25.10;3.70;;;;;;;13.44;60.63;98784.42;110388;1276;22293;-79
2024/03/31 01:13:00;;;;;;;21.00;2.20;;;;;;;13.44;60.79;98778.52;110579;1276;22357;-78
2024/03/31 01:15:50;;;;;;;17.50;2.60;;;;;;;13.44;60.98;98775.30;110469;1276;22705;-79
2024/03/31 01:18:41;;;;;;;26.60;2.90;;;;;;;13.42;60.95;98769.77;110599;1276;22395;-79
2024/03/31 01:21:35;;;;;;;21.80;2.90;;;;;;;13.41;60.90;98770.76;110432;1276;22283;-79
2024/03/31 01:24:25;;;;;;;32.50;2.80;;;;;;;13.39;61.02;98774.30;110559;1270;22301;-79
2024/03/31 01:27:14;;;;;;;;;;;;;;;13.36;61.02;98773.09;110569;1275;22349;-80
2024/03/31 01:30:06;;;;;;;26.50;3.60;;;;;;;13.30;61.24;98772.93;110560;1274;22293;-81
2024/03/31 01:32:57;;;;;;;24.10;2.60;;;;;;;13.26;61.32;98777.05;110491;1275;23005;-79
2024/03/31 01:35:48;;;;;;;18.00;2.10;;;;;;;13.22;61.48;98774.61;110602;1268;22267;-78
2024/03/31 01:38:37;;;;;;;;;;;;;;;13.18;61.47;98777.54;110404;1277;22658;-79
2024/03/31 01:41:27;;;;;;;27.10;3.20;;;;;;;13.13;61.70;98771.50;110351;1268;23261;-79
2024/03/31 01:44:17;;;;;;;24.50;2.00;;;;;;;13.07;61.76;98771.94;110382;1275;22981;-81
2024/03/31 01:47:08;;;;;;;29.90;2.50;;;;;;;12.99;61.89;98773.34;110598;1274;23189;-80
2024/03/31 01:49:58;;;;;;;24.90;2.40;;;;;;;12.96;62.00;98775.73;110556;1269;22292;-81
2024/03/31 01:52:48;;;;;;;18.90;1.90;;;;;;;12.93;62.09;98782.04;110603;1268;22727;-81
2024/03/31 01:55:37;;;;;;;;;;;;;;;12.88;62.11;98782.72;110562;1273;22381;-80
2024/03/31 01:58:27;;;;;;;15.10;2.70;;;;;;;12.80;62.45;98776.16;110398;1269;22366;-79
2024/03/31 02:01:16;;;;;;;;;;;;;;;12.70;62.53;98774.20;110574;1276;23240;-80
2024/03/31 02:04:07;;;;;;;21.00;2.10;;;;;;;12.60;62.65;98772.77;110519;1276;23291;-84
2024/03/31 02:06:57;;;;;;;19.10;2.10;;;;;;;12.52;62.83;98776.11;110568;1276;22271;-80
2024/03/31 02:09:48;;;;;;;22.50;2.10;;;;;;;12.49;62.91;98782.77;110383;1276;22325;-80
2024/03/31 02:12:38;;;;;;;21.10;2.30;;;;;;;12.47;62.94;98782.44;110601;1276;22328;-80
2024/03/31 02:15:27;;;;;;;;;;;;;;;12.42;63.05;98772.83;110398;1276;23304;-80
2024/03/31 02:18:17;;;;;;;21.70;2.50;;;;;;;12.35;63.57;98767.71;110571;1275;22928;-80
2024/03/31 02:21:06;;;;;;;;;;;;;;;12.31;63.56;98768.84;110605;1269;22443;-81
2024/03/31 02:23:56;;;;;;;16.90;2.40;;;;;;;12.26;63.52;98762.42;110558;1275;22166;-80
2024/03/31 02:26:46;;;;;;;17.20;1.40;;;;;;;12.25;63.66;98768.80;110605;1269;23030;-80
2024/03/31 02:29:36;;;;;;;15.40;1.70;;;;;;;12.24;63.81;98770.29;110604;1276;22285;-80
2024/03/31 02:32:26;;;;;;;15.50;2.20;;;;;;;12.21;63.99;98779.63;110409;1275;22569;-81
2024/03/31 02:35:17;;;;;;;24.00;2.70;;;;;;;12.16;64.09;98781.41;110456;1272;22179;-80
2024/03/31 02:38:05;;;;;;;;;;;;;;;12.10;64.26;98782.38;110486;1275;22378;-83
2024/03/31 02:40:56;;;;;;;16.50;2.20;;;;;;;12.03;64.33;98778.99;110376;1275;23045;-79
2024/03/31 02:43:46;;;;;;;20.30;2.30;;;;;;;12.01;64.65;98777.09;110596;1268;22366;-80
2024/03/31 02:46:36;;;;;;;16.30;1.90;;;;;;;12.00;64.62;98778.63;110402;1275;23023;-80
2024/03/31 02:49:26;;;;;;;18.20;2.80;;;;;;;11.96;64.61;98778.35;110382;1269;22164;-81
2024/03/31 02:52:15;;;;;;;;;;;;;;;11.92;64.83;98776.27;110549;1269;23220;-79
2024/03/31 02:55:06;;;;;;;21.20;2.80;;;;;;;11.86;64.94;98770.48;110471;1269;22251;-86
2024/03/31 02:57:56;;;;;;;20.30;1.90;;;;;;;11.86;65.05;98775.56;110591;1276;22223;-81
2024/03/31 03:00:47;;;;;;;21.50;2.60;;;;;;;11.86;64.95;98774.60;110410;1276;22205;-78
2024/03/31 03:03:37;;;;;;;19.90;2.60;;;;;;;11.85;65.19;98766.41;110427;1276;22285;-80
2024/03/31 03:06:28;;;;;;;32.90;8.90;;;;;;;11.82;65.27;98766.59;110465;1276;22571;-77
2024/03/31 03:09:16;;;;;;;;;;;;;;;11.78;65.50;98764.40;110591;1274;22358;-78
2024/03/31 03:12:07;;;;;;;42.20;14.30;;;;;;;11.71;65.57;98761.83;110583;1276;22949;-79
2024/03/31 03:14:58;;;;;;;50.90;16.30;;;;;;;11.68;65.85;98759.98;110394;1260;22611;-79
2024/03/31 03:17:48;;;;;;;;;;;;;;;11.68;65.82;98755.45;110593;1274;22431;-79
2024/03/31 03:20:38;;;;;;;;;;;;;;;11.66;65.95;98755.30;110559;1276;22543;-78
2024/03/31 03:23:29;;;;;;;73.90;23.10;;;;;;;11.61;65.98;98756.30;110554;1273;23158;-78
2024/03/31 03:26:19;;;;;;;60.30;20.50;;;;;;;11.61;65.96;98758.48;110580;1275;22281;-79
2024/03/31 03:29:08;;;;;;;;;;;;;;;11.60;66.05;98755.75;110416;1275;22925;-81
2024/03/31 03:31:59;;;;;;;44.30;10.00;;;;;;;11.59;65.99;98755.34;110368;1276;22288;-78
2024/03/31 03:34:51;;;;;;;31.70;8.40;;;;;;;11.59;66.02;98756.98;110422;1263;22284;-78
2024/03/31 03:37:41;;;;;;;40.30;10.20;;;;;;;11.57;66.30;98751.70;110368;1270;23197;-79
2024/03/31 03:40:33;;;;;;;37.30;11.10;;;;;;;11.53;66.36;98747.84;110527;1274;22356;-78
2024/03/31 03:43:25;;;;;;;27.80;7.50;;;;;;;11.48;66.66;98748.33;110457;1270;22370;-78
2024/03/31 03:46:20;;;;;;;29.00;5.50;;;;;;;11.46;66.62;98741.65;110595;1266;22206;-78
2024/03/31 03:49:11;;;;;;;14.40;2.90;;;;;;;11.45;66.77;98739.01;110520;1276;23080;-80
2024/03/31 03:52:02;;;;;;;17.20;2.50;;;;;;;11.43;66.77;98741.11;110453;1276;23047;-77
2024/03/31 03:54:52;;;;;;;18.20;1.90;;;;;;;11.41;67.10;98743.88;110612;1276;22392;-77
2024/03/31 03:57:41;;;;;;;;;;;;;;;11.38;66.97;98741.24;110639;1276;22512;-78
2024/03/31 04:00:32;;;;;;;16.00;1.60;;;;;;;11.36;67.22;98739.09;110443;1276;22240;-78
2024/03/31 04:03:22;;;;;;;18.00;1.90;;;;;;;11.34;67.33;98739.55;110528;1269;22389;-80
2024/03/31 04:06:12;;;;;;;20.60;2.00;;;;;;;11.32;67.68;98736.58;110423;1275;22370;-79
2024/03/31 04:09:02;;;;;;;19.40;1.90;;;;;;;11.30;67.78;98730.73;110422;1275;22230;-77
2024/03/31 04:11:52;;;;;;;23.30;4.00;;;;;;;11.30;67.92;98732.73;110427;1273;23041;-78
2024/03/31 04:14:41;;;;;;;;;;;;;;;11.31;68.07;98729.17;110631;1273;22395;-78
2024/03/31 04:17:34;;;;;;;30.00;2.50;;;;;;;11.31;68.15;98722.73;110692;1269;22226;-88
2024/03/31 04:20:30;;;;;;;19.50;2.00;;;;;;;11.33;68.25;98728.95;110658;1273;22355;-88
2024/03/31 04:23:23;;;;;;;21.60;2.30;;;;;;;11.35;68.22;98729.59;110625;1268;22323;-88
2024/03/31 04:26:16;;;;;;;29.60;3.10;;;;;;;11.36;68.38;98735.33;110432;1270;22163;-88
2024/03/31 04:29:08;;;;;;;20.80;2.50;;;;;;;11.37;68.47;98738.61;110572;1276;22163;-89
2024/03/31 04:32:00;;;;;;;24.70;2.60;;;;;;;11.37;68.59;98738.36;110654;1273;22916;-88
2024/03/31 04:34:50;;;;;;;18.60;2.60;;;;;;;11.35;68.86;98741.64;110707;1265;22258;-88
2024/03/31 04:37:40;;;;;;;;;;;;;;;11.32;69.09;98745.73;110572;1274;22430;-87
2024/03/31 04:40:32;;;;;;;21.30;1.60;;;;;;;11.23;69.50;98745.63;110569;1276;22679;-87
2024/03/31 04:43:26;;;;;;;20.60;2.00;;;;;;;11.19;69.60;98741.15;110507;1270;22297;-88
2024/03/31 04:46:17;;;;;;;18.20;2.40;;;;;;;11.18;69.67;98740.38;110476;1276;22306;-87
2024/03/31 04:49:09;;;;;;;20.50;2.10;;;;;;;11.19;69.31;98748.45;110650;1269;22217;-87
2024/03/31 04:52:03;;;;;;;20.10;2.40;;;;;;;11.22;69.46;98743.95;110623;1276;22298;-87
2024/03/31 04:54:57;;;;;;;13.90;1.70;;;;;;;11.23;69.73;98739.09;110485;1276;22215;-88
2024/03/31 04:57:52;;;;;;;13.20;2.00;;;;;;;11.24;69.68;98735.73;110626;1276;23006;-88
2024/03/31 05:00:45;;;;;;;20.50;2.00;;;;;;;11.25;69.61;98734.15;110435;1276;22286;-87
2024/03/31 05:03:38;;;;;;;24.60;2.30;;;;;;;11.26;69.73;98732.05;110460;1276;22158;-87
2024/03/31 05:06:31;;;;;;;19.40;2.10;;;;;;;11.27;69.83;98734.44;110347;1276;179864;-88
2024/03/31 05:09:24;;;;;;;19.70;1.80;;;;;;;11.27;70.05;98739.11;110510;1276;22294;-88
2024/03/31 05:12:16;;;;;;;17.00;2.30;;;;;;;11.28;70.17;98740.37;110586;1271;22369;-87
2024/03/31 05:15:09;;;;;;;17.10;2.10;;;;;;;11.27;70.40;98743.67;110458;1275;22211;-88
2024/03/31 05:18:02;;;;;;;17.50;2.20;;;;;;;11.28;70.49;98744.07;110487;1276;22222;-88
2024/03/31 05:21:00;;;;;;;20.30;2.50;;;;;;;11.30;70.66;98745.34;110469;1268;22163;-87
2024/03/31 05:23:54;;;;;;;21.70;2.80;;;;;;;11.29;70.67;98742.45;110449;1277;22132;-87
2024/03/31 05:26:54;;;;;;;18.40;2.40;;;;;;;11.30;70.80;98734.75;110467;1276;22224;-88
2024/03/31 05:29:47;;;;;;;22.40;3.20;;;;;;;11.32;70.87;98730.02;110666;1276;23074;-88
2024/03/31 05:32:42;;;;;;;23.10;3.90;;;;;;;11.35;70.83;98728.62;110620;1276;22212;-88
2024/03/31 05:35:42;;;;;;;20.50;2.10;;;;;;;11.39;71.03;98727.88;110576;1276;22240;-87
2024/03/31 05:38:36;;;;;;;18.10;2.60;;;;;;;11.44;70.93;98729.07;110386;1276;22259;-88
2024/03/31 05:41:38;;;;;;;22.90;2.30;;;;;;;11.48;71.04;98725.97;110622;1270;22219;-88
2024/03/31 05:44:30;;;;;;;19.90;3.30;;;;;;;11.53;71.00;98722.58;110440;1275;22331;-88
2024/03/31 05:47:21;;;;;;;22.80;4.80;;;;;;;11.57;71.18;98721.21;110436;1276;22349;-88
2024/03/31 05:50:14;;;;;;;18.10;3.60;;;;;;;11.63;71.15;98719.80;110499;1276;22254;-88
2024/03/31 05:53:07;;;;;;;20.50;2.60;;;;;;;11.68;71.18;98720.23;110512;1274;22357;-89
2024/03/31 05:56:02;;;;;;;20.80;1.80;;;;;;;11.74;71.27;98712.79;110464;1276;22154;-87
2024/03/31 05:59:02;;;;;;;22.60;2.60;;;;;;;11.81;71.21;98708.86;110698;1275;22899;-89
2024/03/31 06:01:54;;;;;;;25.10;4.10;;;;;;;11.87;71.20;98706.41;110521;1271;22230;-89
2024/03/31 06:04:59;;;;;;;26.80;4.70;;;;;;;11.94;71.84;98703.87;110671;1276;22290;-89
2024/03/31 06:07:51;;;;;;;28.00;3.90;;;;;;;12.03;71.87;98699.12;110520;1275;22180;-89
2024/03/31 06:10:47;;;;;;;21.70;3.70;;;;;;;12.14;72.17;98693.59;110714;1276;22224;-88
2024/03/31 06:13:39;;;;;;;21.60;3.40;;;;;;;12.27;72.19;98693.89;110563;1276;22233;-90
2024/03/31 06:16:30;;;;;;;26.90;3.30;;;;;;;12.41;71.89;98693.35;110602;1269;23063;-88
2024/03/31 06:19:23;;;;;;;29.40;2.50;;;;;;;12.56;71.88;98697.98;110461;1269;22418;-86
2024/03/31 06:22:16;;;;;;;20.50;3.20;;;;;;;12.70;71.52;98701.30;110639;1269;22300;-87
2024/03/31 06:25:10;;;;;;;25.20;2.00;;;;;;;12.86;71.68;98700.60;110347;1270;22940;-88
2024/03/31 06:28:08;;;;;;;23.50;2.50;;;;;;;13.02;71.70;98693.24;110607;1276;22447;-87
2024/03/31 06:31:06;;;;;;;26.40;2.70;;;;;;;13.15;71.74;98698.98;110507;1276;23043;-87
2024/03/31 06:33:58;;;;;;;18.90;1.90;;;;;;;13.24;71.36;98698.67;110538;1275;22166;-87
2024/03/31 06:36:49;;;;;;;18.50;2.10;;;;;;;13.33;71.29;98701.84;110600;1276;22948;-87
2024/03/31 06:39:41;;;;;;;21.80;1.90;;;;;;;13.40;71.18;98700.27;110689;1259;23117;-88
2024/03/31 06:42:33;;;;;;;21.30;1.70;;;;;;;13.50;71.08;98699.39;110508;1276;22231;-87
2024/03/31 06:45:26;;;;;;;24.40;2.30;;;;;;;13.61;71.00;98699.05;110472;1272;22654;-84
2024/03/31 06:48:17;;;;;;;25.00;2.90;;;;;;;13.75;71.05;98700.58;110442;1274;22410;-83
2024/03/31 06:51:08;;;;;;;23.70;2.10;;;;;;;13.93;70.81;98695.90;110520;1275;22362;-84
2024/03/31 06:53:57;;;;;;;;;;;;;;;14.12;70.61;98691.47;110602;1276;23209;-82
2024/03/31 06:56:47;;;;;;;23.50;3.00;;;;;;;14.31;70.53;98687.17;110606;1276;22256;-82
2024/03/31 06:59:37;;;;;;;22.60;2.60;;;;;;;14.50;70.16;98684.89;110474;1276;22296;-83
2024/03/31 07:02:27;;;;;;;19.10;2.20;;;;;;;14.71;69.73;98680.06;110438;1276;22169;-82
2024/03/31 07:05:18;;;;;;;25.50;2.10;;;;;;;14.93;69.48;98681.39;110429;1276;22296;-83
2024/03/31 07:08:09;;;;;;;24.90;3.30;;;;;;;15.12;69.05;98683.81;110414;1276;22304;-81
2024/03/31 07:10:59;;;;;;;22.10;2.40;;;;;;;15.27;68.80;98686.14;110471;1272;23000;-83
2024/03/31 07:13:50;;;;;;;26.30;2.50;;;;;;;15.40;68.66;98680.11;110443;1276;22262;-82
2024/03/31 07:16:40;;;;;;;21.90;1.90;;;;;;;15.52;68.42;98676.98;110401;1274;22227;-83
2024/03/31 07:19:31;;;;;;;28.10;2.90;;;;;;;15.65;67.73;98679.48;110433;1270;22976;-83
2024/03/31 07:22:20;;;;;;;;;;;;;;;15.81;66.36;98676.09;110459;1274;22353;-82
2024/03/31 07:25:11;;;;;;;23.50;2.20;;;;;;;15.97;66.10;98678.83;110576;1270;23001;-83
2024/03/31 07:28:01;;;;;;;27.90;3.30;;;;;;;16.10;65.87;98678.45;110542;1271;23283;-83
2024/03/31 07:30:52;;;;;;;31.10;4.60;;;;;;;16.21;65.72;98683.05;110460;1276;22417;-82
2024/03/31 07:33:43;;;;;;;33.70;7.50;;;;;;;16.35;65.03;98675.58;110503;1270;22178;-82
2024/03/31 07:36:33;;;;;;;42.90;6.20;;;;;;;16.48;64.63;98675.27;110489;1274;22387;-83
2024/03/31 07:39:22;;;;;;;;;;;;;;;16.58;64.32;98671.80;110609;1269;22366;-83
2024/03/31 07:42:13;;;;;;;29.10;3.90;;;;;;;16.71;63.70;98664.40;110549;1276;22230;-84
2024/03/31 07:45:05;;;;;;;26.40;3.40;;;;;;;16.83;62.95;98662.52;110574;1271;23212;-85
2024/03/31 07:47:56;;;;;;;30.80;2.90;;;;;;;16.98;62.78;98654.24;110563;1270;22283;-82
2024/03/31 07:50:46;;;;;;;31.30;3.20;;;;;;;17.12;62.18;98649.64;110588;1269;22266;-86
2024/03/31 07:53:37;;;;;;;27.90;3.10;;;;;;;17.25;62.23;98640.39;110605;1269;22439;-84
2024/03/31 07:56:28;;;;;;;33.80;4.60;;;;;;;17.36;61.58;98633.27;110565;1270;22230;-85
2024/03/31 07:59:16;;;;;;;;;;;;;;;17.47;61.55;98625.70;110566;1274;22526;-86
2024/03/31 08:02:07;;;;;;;29.30;2.40;;;;;;;17.55;60.87;98620.16;110587;1272;22171;-81
2024/03/31 08:04:55;;;;;;;;;;;;;;;17.65;60.98;98614.48;110562;1273;22413;-85
2024/03/31 08:07:47;;;;;;;19.20;1.60;;;;;;;17.76;60.09;98611.61;110610;1276;22308;-87
2024/03/31 08:10:37;;;;;;;25.80;3.40;;;;;;;17.85;59.82;98611.55;110429;1266;22315;-86
2024/03/31 08:13:30;;;;;;;26.40;3.80;;;;;;;17.91;59.47;98617.86;110554;1276;22401;-87
2024/03/31 08:16:20;;;;;;;24.60;4.30;;;;;;;17.94;59.15;98617.73;110506;1269;22194;-86
2024/03/31 08:19:13;;;;;;;28.90;4.00;;;;;;;17.97;58.78;98615.14;110581;1268;25520;-87
2024/03/31 08:22:06;;;;;;;17.20;2.60;;;;;;;18.00;58.22;98619.88;110583;1266;22298;-87
2024/03/31 08:25:01;;;;;;;26.90;2.50;;;;;;;18.05;58.07;98624.34;110583;1276;23039;-87
2024/03/31 08:27:52;;;;;;;26.70;3.10;;;;;;;18.11;58.02;98621.23;110463;1276;22407;-87
2024/03/31 08:30:44;;;;;;;27.40;2.90;;;;;;;18.18;57.50;98617.25;110603;1273;23200;-88
2024/03/31 08:33:34;;;;;;;26.30;2.10;;;;;;;18.25;57.26;98613.90;110492;1276;22172;-86
2024/03/31 08:36:25;;;;;;;25.40;2.70;;;;;;;18.30;56.77;98609.00;110561;1273;22182;-85
2024/03/31 08:39:17;;;;;;;36.20;3.10;;;;;;;18.35;56.19;98606.37;110525;1271;22483;-87
2024/03/31 08:42:16;;;;;;;23.40;2.00;;;;;;;18.42;56.30;98614.42;110547;1276;22435;-87
2024/03/31 08:45:12;;;;;;;33.40;4.20;;;;;;;18.49;56.31;98603.05;110546;1276;22999;-87
2024/03/31 08:48:06;;;;;;;25.60;4.00;;;;;;;18.56;56.07;98595.83;110476;1270;22227;-87
2024/03/31 08:50:58;;;;;;;25.80;4.10;;;;;;;18.65;55.49;98601.51;110580;1274;22180;-86
2024/03/31 08:53:49;;;;;;;23.60;2.90;;;;;;;18.76;55.35;98607.42;110543;1276;23015;-85
2024/03/31 08:56:40;;;;;;;24.20;2.30;;;;;;;18.92;55.07;98608.75;110602;1272;22533;-85
2024/03/31 08:59:31;;;;;;;28.50;4.30;;;;;;;19.04;55.03;98594.00;110438;1270;22135;-86
2024/03/31 09:02:24;;;;;;;23.60;3.10;;;;;;;19.18;54.80;98595.24;110524;1267;22293;-85
2024/03/31 09:05:15;;;;;;;25.50;2.40;;;;;;;19.33;53.28;98598.95;110541;1273;22332;-86
2024/03/31 09:08:08;;;;;;;26.90;2.30;;;;;;;19.47;52.77;98600.77;110606;1269;22355;-87
2024/03/31 09:10:58;;;;;;;27.20;2.80;;;;;;;19.59;51.63;98603.82;110577;1272;22232;-85
2024/03/31 09:13:49;;;;;;;25.00;2.70;;;;;;;19.71;50.78;98600.39;110380;1269;22762;-83
2024/03/31 09:16:43;;;;;;;23.00;2.80;;;;;;;19.81;50.28;98606.66;110557;1273;22194;-86
2024/03/31 09:19:36;;;;;;;30.30;3.90;;;;;;;19.90;49.97;98613.36;110581;1260;22285;-85
2024/03/31 09:22:27;;;;;;;35.60;3.80;;;;;;;19.97;49.16;98611.42;110311;1269;23021;-85
2024/03/31 09:25:18;;;;;;;29.10;2.60;;;;;;;20.07;49.25;98620.59;110572;1270;22323;-85
2024/03/31 09:28:09;;;;;;;29.00;3.60;;;;;;;20.16;49.49;98617.61;110535;1270;22420;-85
2024/03/31 09:31:00;;;;;;;24.10;2.60;;;;;;;20.24;49.15;98622.30;110548;1276;22276;-85
2024/03/31 09:33:50;;;;;;;32.60;3.00;;;;;;;20.31;48.37;98628.67;110442;1273;22158;-85
2024/03/31 09:36:41;;;;;;;35.80;2.50;;;;;;;20.38;47.68;98626.25;110534;1269;23068;-85
2024/03/31 09:39:32;;;;;;;32.10;3.80;;;;;;;20.47;47.40;98629.58;110584;1276;22900;-87
2024/03/31 09:42:25;;;;;;;34.80;2.50;;;;;;;20.55;46.81;98624.81;110460;1269;22262;-86
2024/03/31 09:45:16;;;;;;;34.30;3.80;;;;;;;20.62;46.57;98615.20;110513;1271;22227;-87
2024/03/31 09:48:16;;;;;;;34.30;3.50;;;;;;;20.71;46.10;98605.42;110496;1276;22478;-86
2024/03/31 09:51:13;;;;;;;39.20;4.70;;;;;;;20.81;45.85;98614.94;110504;1273;22327;-87
2024/03/31 09:54:15;;;;;;;32.20;3.80;;;;;;;20.87;45.45;98616.85;110523;1277;22433;-85
2024/03/31 09:57:11;;;;;;;23.60;3.60;;;;;;;20.92;45.45;98621.40;110328;1273;22242;-88
2024/03/31 10:00:05;;;;;;;30.50;4.20;;;;;;;21.00;45.53;98623.27;110458;1270;22227;-86
2024/03/31 10:03:08;;;;;;;33.90;3.80;;;;;;;21.10;44.88;98623.05;110493;1270;22303;-84
2024/03/31 10:05:59;;;;;;;;;;;;;;;21.17;44.74;98612.70;110510;1270;22330;-84
2024/03/31 10:08:50;;;;;;;38.90;3.60;;;;;;;21.22;44.51;98604.48;110518;1271;22237;-85
2024/03/31 10:11:42;;;;;;;34.40;4.40;;;;;;;21.30;44.18;98596.31;110334;1271;22166;-81
2024/03/31 10:14:40;;;;;;;34.10;4.10;;;;;;;21.39;43.96;98595.71;110566;1273;22272;-87
2024/03/31 10:17:32;;;;;;;43.70;4.80;;;;;;;21.48;43.69;98600.37;110321;1277;22231;-85
2024/03/31 10:20:27;;;;;;;30.60;3.70;;;;;;;21.55;43.08;98599.64;110521;1270;22326;-87
2024/03/31 10:23:19;;;;;;;35.70;3.90;;;;;;;21.61;43.29;98599.41;110497;1276;22195;-86
2024/03/31 10:26:13;;;;;;;43.00;5.80;;;;;;;21.71;43.09;98590.07;110494;1263;22378;-84
2024/03/31 10:29:04;;;;;;;37.50;4.50;;;;;;;21.83;42.65;98587.84;110491;1270;23066;-82
2024/03/31 10:31:56;;;;;;;54.80;5.70;;;;;;;21.88;41.51;98592.66;110586;1270;22313;-88
2024/03/31 10:36:29;;;;;;;46.10;4.00;;;;;;;21.96;41.26;98590.88;106055;1311;542881;-88
2024/03/31 10:39:24;;;;;;;38.50;4.90;;;;;;;22.04;40.85;98585.98;108034;1272;22556;-87
2024/03/31 10:42:27;;;;;;;35.90;4.20;;;;;;;22.11;40.37;98583.16;107925;1270;23397;-87
2024/03/31 10:45:18;;;;;;;38.00;5.80;;;;;;;22.18;39.91;98595.03;110669;1270;22177;-90
2024/03/31 10:48:10;;;;;;;38.30;6.00;;;;;;;22.23;39.70;98594.94;110662;1272;22389;-91
2024/03/31 10:51:13;;;;;;;48.40;6.20;;;;;;;22.24;39.72;98587.66;110631;1268;150421;-84
2024/03/31 10:54:29;;;;;;;48.40;6.30;;;;;;;22.26;39.74;98587.39;110775;1273;22224;-87
2024/03/31 10:57:19;;;;;;;38.20;6.60;;;;;;;22.33;39.96;98577.93;110782;1273;22374;-86
2024/03/31 11:00:21;;;;;;;46.40;6.70;;;;;;;22.42;39.51;98577.34;110835;1272;22355;-90
2024/03/31 11:03:14;;;;;;;46.40;6.50;;;;;;;22.46;38.69;98577.95;110130;1266;22549;-89
2024/03/31 11:06:17;;;;;;;41.20;5.50;;;;;;;22.46;38.48;98567.14;108579;1265;22688;-84
2024/03/31 11:09:09;;;;;;;50.90;6.30;;;;;;;22.50;38.78;98562.98;108471;1268;22528;-87
2024/03/31 11:11:59;;;;;;;48.70;6.10;;;;;;;22.54;38.87;98557.72;108374;1270;25234;-87
2024/03/31 11:14:54;;;;;;;43.40;5.40;;;;;;;22.59;38.79;98564.88;108195;1269;22530;-90
2024/03/31 11:17:50;;;;;;;55.40;8.20;;;;;;;22.61;38.76;98560.54;108718;1268;22521;-89
2024/03/31 11:20:47;;;;;;;40.20;4.60;;;;;;;22.64;38.82;98554.46;108316;1270;22524;-89
2024/03/31 11:23:41;;;;;;;37.20;6.00;;;;;;;22.64;38.63;98554.75;109038;1268;22581;-89
2024/03/31 11:26:38;;;;;;;31.30;4.30;;;;;;;22.64;38.45;98553.45;109823;1267;25334;-89
2024/03/31 11:29:32;;;;;;;35.40;5.00;;;;;;;22.62;38.09;98560.30;110527;1269;25244;-87
2024/03/31 11:32:25;;;;;;;40.50;5.70;;;;;;;22.59;38.15;98554.25;110971;1268;22241;-87
2024/03/31 11:35:18;;;;;;;49.40;5.60;;;;;;;22.59;38.46;98557.68;109484;1270;24781;-86
2024/03/31 11:38:16;;;;;;;45.10;6.00;;;;;;;22.63;38.54;98560.21;108478;1266;22545;-88
2024/03/31 11:41:08;;;;;;;44.90;7.20;;;;;;;22.68;38.79;98561.15;108595;1268;22593;-86
2024/03/31 11:43:59;;;;;;;41.80;5.60;;;;;;;22.72;38.63;98560.90;108547;1268;22579;-91
2024/03/31 11:46:51;;;;;;;36.10;5.20;;;;;;;22.72;38.43;98566.88;108371;1271;24338;-88
2024/03/31 11:49:43;;;;;;;46.70;5.50;;;;;;;22.76;38.44;98567.39;109257;1266;22557;-85
2024/03/31 11:52:35;;;;;;;34.60;5.80;;;;;;;22.79;38.42;98565.04;108645;1271;22526;-88
2024/03/31 11:55:28;;;;;;;39.00;5.40;;;;;;;22.81;38.24;98571.50;108291;1263;22563;-89
2024/03/31 11:58:22;;;;;;;43.50;6.80;;;;;;;22.83;38.29;98572.88;108195;1271;22538;-86
2024/03/31 12:01:17;;;;;;;46.40;6.20;;;;;;;22.80;38.24;98572.52;108596;1271;24287;-87
2024/03/31 12:04:08;;;;;;;41.00;5.60;;;;;;;22.78;38.32;98577.52;108329;1247;22686;-86
2024/03/31 12:07:00;;;;;;;37.30;6.00;;;;;;;22.77;38.26;98581.96;108338;1271;22607;-87
2024/03/31 12:10:17;;;;;;;41.00;6.50;;;;;;;22.73;38.26;98586.30;109084;1250;22465;31
2024/03/31 12:13:18;;;;;;;42.50;5.70;;;;;;;22.72;38.36;98585.48;109016;1273;22560;-90
2024/03/31 12:16:12;;;;;;;41.10;5.60;;;;;;;22.75;38.53;98586.95;110727;1273;22200;-87
2024/03/31 12:19:03;;;;;;;41.70;6.00;;;;;;;22.78;38.44;98588.34;110315;1273;25300;-86
2024/03/31 12:21:55;;;;;;;47.50;6.30;;;;;;;22.82;38.05;98587.20;108052;1273;25346;-85
2024/03/31 12:24:46;;;;;;;38.20;5.80;;;;;;;22.84;38.26;98594.20;108043;1273;22532;-87
2024/03/31 12:27:39;;;;;;;42.70;5.10;;;;;;;22.88;37.81;98591.46;108039;1273;25296;-88
2024/03/31 12:30:38;;;;;;;43.10;6.90;;;;;;;22.90;38.12;98590.91;108053;1266;22554;-86
2024/03/31 12:33:29;;;;;;;49.40;7.50;;;;;;;22.92;37.79;98579.95;108015;1273;25363;-85
2024/03/31 12:36:21;;;;;;;45.40;7.70;;;;;;;22.93;37.68;98578.75;108015;1263;22529;-85
2024/03/31 12:39:12;;;;;;;47.70;6.70;;;;;;;22.93;37.91;98577.63;107945;1270;25348;-85
2024/03/31 12:42:08;;;;;;;52.90;7.00;;;;;;;22.95;37.77;98579.33;108484;1273;22561;-90
2024/03/31 12:45:19;;;;;;;52.30;6.50;;;;;;;22.97;38.01;98584.86;108508;1269;22536;-85
2024/03/31 12:48:12;;;;;;;45.00;6.50;;;;;;;22.98;38.02;98578.13;107899;1251;22521;-88
2024/03/31 12:51:03;;;;;;;43.80;6.00;;;;;;;22.96;38.04;98580.55;109790;1273;22525;-84
2024/03/31 12:53:54;;;;;;;45.00;5.60;;;;;;;22.92;37.81;98587.06;108211;1273;22568;-85
2024/03/31 12:56:46;;;;;;;47.90;6.50;;;;;;;22.88;37.92;98584.06;107968;1273;22607;-88
2024/03/31 12:59:41;;;;;;;48.20;6.20;;;;;;;22.84;38.06;98581.11;107902;1273;25284;-89
2024/03/31 13:02:33;;;;;;;45.20;6.20;;;;;;;22.77;37.70;98578.46;110713;1273;22229;-88
2024/03/31 13:05:25;;;;;;;42.00;5.50;;;;;;;22.75;38.05;98579.42;108817;1273;25374;-85
2024/03/31 13:08:17;;;;;;;50.50;6.40;;;;;;;22.74;38.24;98578.11;108046;1273;24203;-87
2024/03/31 13:11:08;;;;;;;42.20;6.90;;;;;;;22.72;37.78;98580.82;108213;1273;22530;-87
2024/03/31 13:14:03;;;;;;;48.50;6.60;;;;;;;22.69;37.73;98575.59;108154;1273;22647;-88
2024/03/31 13:16:57;;;;;;;31.90;5.40;;;;;;;22.66;38.06;98577.66;108912;1255;22564;-92
2024/03/31 13:20:11;;;;;;;45.60;6.40;;;;;;;22.65;38.42;98576.55;108381;1273;22563;-86